Germantown, Illinois
Current Conditions -  °F | °C
As of 3:58 PM on Wednesday 28 Jan 2015 (Local Time) from KBLV Reporting Station
Clear Clear  
Wind Chill: 42°   Ceiling: Unl
Heat Index: 46°   Visibility: 10mi
Dew Point: 32°   Wind: 9mph
Humidity: 57%   Direction: 160°SSE
Pressure: 30.04"   Gusts: 18mph
Location:  38.55°N, 89.54°W
Report Text: KBLV 282158Z AUTO 16008G16KT 140V200 10SM CLR 08/00 A3004 RMK AO2 SLP179
Loading
Personal Weather Stations






























Interactive Weather Map New forecast layout! Learn more

10-Day Weather Forecast

Advertisements
Track Severe Weather on mobile